Terminal Aerodrome Forecast
Issued by NWS

Home | Current Version | Previous Version | Text Only | Print | Product List | Glossary Off
Versions: 1 2 3 4 5 6 7 8 9 10 11 12 13 14 15 16 17

611
FTUS43 KBIS 171128
TAFDIK
TAF
KDIK 171128Z 1712/1812 29008KT P6SM BKN110
     FM180300 26006KT P6SM BKN090
     FM180600 28009KT P6SM SCT150
     FM180800 29012G20KT P6SM SCT140=

USA.gov is the U.S. government's official web portal to all federal, state and local government web resources and services.